Airfield :
LOGIN :

Register | Disclaimer

   EN    FR    IT 

 










Legend :    VFR   Marginal VFR   IFR   Intensive IFR   Very Intensive IFR
Visi :
Ceiling :
>= 8 km
>= 3000ft
5 to 8 km
1000 to 3000 ft
1500m to 5 km
500 to 1000 ft
800 to 1500m
200 to 500 ft
< 800m
< 200 ft
Symbols :   Thunderstorms  Fog  Heavy snow  Heavy precipitations  Wind > 20 kt
SIGMETs :     Misc.  Thunderstorms  Icing  Turbulence  Mountain Waves  Volcanic Ashes






- Airport Elevation : 289 ft


LFYR - Romorantin Pruniers

CURRENT METAR :
  • 301430Z AUTO 04004KT 020V080 9999 OVC014 07/05 Q1022 BECMG OVC015

EXPIRED METARs :
  • 301400Z AUTO 05006KT 010V070 9999 OVC015 07/05 Q1022 BECMG BKN012
  • 301330Z AUTO 04005KT 360V070 9999 OVC012 07/05 Q1022 NOSIG
  • 301300Z AUTO 04004KT 350V070 9999 OVC013 07/05 Q1022 NOSIG
  • 301230Z AUTO 03005KT 360V080 9999 OVC012 07/05 Q1022 NOSIG
  • 301200Z AUTO 05005KT 360V080 9999 OVC011 07/05 Q1022 NOSIG

TAF TAF LFYR
Valid from the 30 at 15:00 until the 01 at 15:00 UTC


301400Z 3015/0115 02004KT 9999 OVC015
BECMG 3019/3022 BKN006
PROB30
TEMPO 3022/0108 3000 BR BKN003
PROB30
TEMPO 0108/0115 2000 -DZ BKN003



MET'MAP, your aeronautical weather chart ! - Copyright ORBIFLY December 2007 - Disclaimer

ORBIFLY MET'MAP TEAM :

Programming & Development : Alexandra Zaïnal
Original concept : Baudouin d'Aumeries
Technical & hardware support : Manuel Goepfert
Assistance : Marc-Olivier Méhu




SOURCES & CREDITS :

   NOAA